Time;durP1;ratioP1;P1;durP2;ratioP2;P2;SDS_P1;SDS_P2;PMS_P1;PMS_P2;Temp;Humidity;BMP_temperature;BMP_pressure;BME280_temperature;BME280_humidity;BME280_pressure;Samples;Min_cycle;Max_cycle;Signal;HPM_P1;HPM_P2
2022/01/29 00:01:05;;;;;;;24.03;14.60;;;3.40;1.00;;;;;;5090665;28;20633;-71
2022/01/29 00:03:35;;;;;;;24.60;16.17;;;3.40;99.90;;;;;;5090674;28;20197;-73
2022/01/29 00:06:03;;;;;;;32.30;17.93;;;3.40;1.00;;;;;;5090740;28;20559;-71
2022/01/29 00:08:31;;;;;;;66.93;38.33;;;3.30;1.00;;;;;;5091138;28;20201;-73
2022/01/29 00:11:06;;;;;;;90.40;44.40;;;3.40;1.00;;;;;;5090917;28;20568;-72
2022/01/29 00:13:33;;;;;;;69.00;39.40;;;3.40;1.00;;;;;;5090521;28;20677;-72
2022/01/29 00:16:01;;;;;;;43.00;25.57;;;3.20;99.90;;;;;;5090985;28;20302;-71
2022/01/29 00:18:28;;;;;;;42.20;21.50;;;3.10;1.00;;;;;;5090597;28;20201;-73
2022/01/29 00:20:55;;;;;;;34.23;18.57;;;3.20;1.00;;;;;;5090577;28;20673;-73
2022/01/29 00:23:22;;;;;;;32.37;17.53;;;3.10;1.00;;;;;;5089994;28;20569;-73
2022/01/29 00:25:49;;;;;;;62.00;33.00;;;3.10;10.10;;;;;;5090689;28;20233;-73
2022/01/29 00:28:16;;;;;;;33.33;19.60;;;3.00;1.00;;;;;;5090084;28;20614;-74
2022/01/29 00:30:44;;;;;;;33.33;17.73;;;3.20;99.90;;;;;;5090525;28;20209;-73
2022/01/29 00:33:14;;;;;;;28.83;16.57;;;3.10;1.00;;;;;;5089957;28;20573;-72
2022/01/29 00:35:41;;;;;;;28.37;15.93;;;3.10;98.20;;;;;;5090510;28;20206;-72
2022/01/29 00:38:08;;;;;;;25.57;15.33;;;3.00;99.90;;;;;;5090941;28;20262;-71
2022/01/29 00:40:36;;;;;;;30.53;16.87;;;3.10;99.90;;;;;;5094242;28;20659;-72
2022/01/29 00:43:04;;;;;;;26.37;15.97;;;3.10;99.90;;;;;;5094052;28;20259;-70
2022/01/29 00:45:32;;;;;;;27.20;15.87;;;3.10;99.90;;;;;;5094298;28;20712;-72
2022/01/29 00:47:59;;;;;;;23.83;14.73;;;3.10;99.90;;;;;;5094260;28;20201;-72
2022/01/29 00:50:27;;;;;;;23.57;14.93;;;2.90;1.00;;;;;;5093899;28;20212;-75
2022/01/29 00:52:54;;;;;;;28.60;14.93;;;2.90;1.00;;;;;;5094071;28;20209;-73
2022/01/29 00:55:22;;;;;;;29.70;15.73;;;2.90;6.70;;;;;;5093877;28;20251;-74
2022/01/29 00:57:49;;;;;;;26.00;15.77;;;2.80;99.90;;;;;;5094324;28;20231;-76
2022/01/29 01:00:17;;;;;;;26.07;14.57;;;2.80;99.90;;;;;;5093734;28;20198;-77
2022/01/29 01:02:44;;;;;;;28.13;16.33;;;2.80;99.90;;;;;;5093915;28;20565;-75
2022/01/29 01:05:11;;;;;;;23.27;15.37;;;2.80;99.90;;;;;;5093246;28;20651;-74
2022/01/29 01:07:41;;;;;;;27.63;18.10;;;2.80;1.00;;;;;;5093877;28;20202;-74
2022/01/29 01:10:10;;;;;;;28.97;16.67;;;2.90;1.00;;;;;;5093549;28;20205;-74
2022/01/29 01:12:37;;;;;;;25.10;15.93;;;3.00;99.90;;;;;;5093937;28;20209;-76
2022/01/29 01:15:08;;;;;;;29.20;16.07;;;3.00;99.90;;;;;;5093239;28;20201;-75
2022/01/29 01:17:35;;;;;;;24.87;15.57;;;3.00;1.00;;;;;;5093614;28;20202;-75
2022/01/29 01:20:04;;;;;;;39.27;20.70;;;2.90;1.00;;;;;;5093869;28;20197;-74
2022/01/29 01:22:31;;;;;;;24.10;15.07;;;2.80;1.00;;;;;;5094082;28;20680;-73
2022/01/29 01:24:59;;;;;;;24.83;14.70;;;2.80;1.00;;;;;;5093495;28;20229;-74
2022/01/29 01:27:26;;;;;;;21.43;13.80;;;2.80;99.90;;;;;;5093301;28;20216;-73
2022/01/29 01:29:53;;;;;;;24.50;14.40;;;2.80;99.90;;;;;;5092954;28;20201;-73
2022/01/29 01:32:20;;;;;;;20.83;14.50;;;2.70;95.00;;;;;;5092864;28;20201;-73
2022/01/29 01:34:51;;;;;;;22.80;13.33;;;2.60;99.90;;;;;;5093260;28;20209;-73
2022/01/29 01:37:30;;;;;;;22.13;12.90;;;2.70;1.00;;;;;;5092871;28;20233;-74
2022/01/29 01:39:59;;;;;;;19.50;11.60;;;2.80;1.00;;;;;;5093463;28;20695;-75
2022/01/29 01:42:26;;;;;;;22.87;13.00;;;2.90;1.00;;;;;;5092644;28;20244;-73
2022/01/29 01:44:54;;;;;;;20.00;11.37;;;2.90;99.90;;;;;;5092800;28;20239;-73
2022/01/29 01:47:22;;;;;;;21.00;12.83;;;2.80;1.00;;;;;;5092921;28;20209;-73
2022/01/29 01:49:49;;;;;;;22.47;13.50;;;2.80;1.00;;;;;;5092312;28;20579;-75
2022/01/29 01:52:16;;;;;;;20.70;11.67;;;2.80;1.00;;;;;;5092778;28;20201;-74
2022/01/29 01:54:44;;;;;;;18.93;11.27;;;2.80;1.00;;;;;;5093297;28;20206;-75
2022/01/29 01:57:13;;;;;;;21.07;12.47;;;2.80;1.00;;;;;;5092485;28;20255;-71
2022/01/29 01:59:40;;;;;;;18.53;12.40;;;2.80;1.00;;;;;;5092808;28;20270;-71
2022/01/29 02:02:07;;;;;;;16.90;11.57;;;2.80;99.90;;;;;;5092528;28;20205;-72
2022/01/29 02:04:34;;;;;;;20.67;11.87;;;2.70;99.90;;;;;;5092615;28;20279;-73
2022/01/29 02:07:02;;;;;;;19.40;11.30;;;2.70;99.90;;;;;;5092962;28;20202;-75
2022/01/29 02:09:31;;;;;;;18.03;10.83;;;2.70;99.90;;;;;;5093009;28;20577;-72
2022/01/29 02:12:00;;;;;;;16.10;10.83;;;2.50;99.90;;;;;;5092840;28;20208;-72
2022/01/29 02:14:31;;;;;;;14.83;10.17;;;2.40;99.90;;;;;;5092430;28;20209;-72
2022/01/29 02:16:58;;;;;;;14.57;9.67;;;2.40;99.90;;;;;;5092595;28;20557;-72
2022/01/29 02:19:25;;;;;;;13.93;9.10;;;2.50;1.00;;;;;;5092145;28;20259;-75
2022/01/29 02:21:54;;;;;;;26.23;11.93;;;2.40;1.00;;;;;;5092488;28;20206;-74
2022/01/29 02:24:21;;;;;;;20.30;11.23;;;2.50;1.00;;;;;;5091645;28;20210;-72
2022/01/29 02:26:48;;;;;;;16.90;10.47;;;2.40;1.00;;;;;;5092454;28;20201;-73
2022/01/29 02:29:15;;;;;;;13.90;8.70;;;2.20;1.00;;;;;;5091655;28;20250;-75
2022/01/29 02:31:50;;;;;;;15.17;9.87;;;2.20;1.00;;;;;;5092238;28;20231;-76
2022/01/29 02:34:17;;;;;;;14.33;9.13;;;2.50;1.00;;;;;;5091952;28;20205;-76
2022/01/29 02:36:44;;;;;;;19.53;10.67;;;2.60;1.00;;;;;;5092038;28;20723;-74
2022/01/29 02:39:14;;;;;;;21.00;10.47;;;2.70;1.00;;;;;;5091621;28;20202;-74
2022/01/29 02:41:44;;;;;;;18.17;9.97;;;2.60;99.90;;;;;;5091922;28;20205;-72
2022/01/29 02:44:14;;;;;;;17.40;10.77;;;2.60;64.00;;;;;;5091320;28;20664;-72
2022/01/29 02:46:50;;;;;;;17.43;10.23;;;2.60;1.00;;;;;;5091729;28;20302;-72
2022/01/29 02:49:20;;;;;;;17.07;9.50;;;2.50;1.00;;;;;;5091489;28;20205;-72
2022/01/29 02:51:49;;;;;;;11.63;8.23;;;2.40;1.00;;;;;;5091589;28;20201;-72
2022/01/29 02:54:17;;;;;;;14.27;8.43;;;2.40;38.10;;;;;;5091400;28;20229;-71
2022/01/29 02:56:45;;;;;;;16.00;9.47;;;2.40;99.90;;;;;;5091457;28;20661;-74
2022/01/29 02:59:12;;;;;;;15.90;9.73;;;2.30;1.00;;;;;;5091281;28;20673;-73
2022/01/29 03:01:39;;;;;;;15.33;9.70;;;2.10;99.90;;;;;;5091555;28;20722;-74
2022/01/29 03:04:07;;;;;;;17.80;7.97;;;2.10;1.00;;;;;;5091150;28;20258;-73
2022/01/29 03:06:34;;;;;;;17.90;9.33;;;2.10;1.00;;;;;;5091529;28;20278;-73
2022/01/29 03:09:02;;;;;;;18.23;10.20;;;2.20;1.00;;;;;;5091580;28;20624;-74
2022/01/29 03:11:30;;;;;;;17.10;11.00;;;2.30;1.00;;;;;;5091633;28;20205;-72
2022/01/29 03:13:57;;;;;;;17.67;11.33;;;2.50;99.90;;;;;;5091740;28;20201;-72
2022/01/29 03:16:24;;;;;;;14.07;9.20;;;2.60;99.90;;;;;;5090945;28;20251;-71
2022/01/29 03:18:51;;;;;;;16.40;11.40;;;2.60;48.90;;;;;;5091261;28;20205;-72
2022/01/29 03:21:18;;;;;;;19.83;11.23;;;2.50;99.90;;;;;;5091156;28;20259;-72
2022/01/29 03:23:45;;;;;;;15.53;9.80;;;2.50;99.90;;;;;;5091336;28;20212;-73
2022/01/29 03:26:12;;;;;;;23.47;12.57;;;2.40;66.60;;;;;;5090570;28;20233;-73
2022/01/29 03:28:41;;;;;;;17.57;9.90;;;2.50;99.90;;;;;;5091112;28;20261;-73
2022/01/29 03:31:08;;;;;;;15.93;9.20;;;2.30;99.90;;;;;;5090654;28;20210;-73
2022/01/29 03:33:35;;;;;;;19.60;10.60;;;2.30;99.90;;;;;;5091066;28;20676;-73
2022/01/29 03:36:02;;;;;;;15.73;9.60;;;2.20;99.90;;;;;;5091052;28;20634;-73
2022/01/29 03:38:29;;;;;;;17.03;10.63;;;2.40;1.00;;;;;;5091362;28;20209;-73
2022/01/29 03:40:58;;;;;;;16.30;9.40;;;2.40;1.00;;;;;;5091005;28;20212;-74
2022/01/29 03:43:29;;;;;;;16.30;10.67;;;2.40;1.00;;;;;;5090595;28;20202;-73
2022/01/29 03:45:58;;;;;;;16.37;9.93;;;2.40;99.90;;;;;;5090928;28;20641;-73
2022/01/29 03:48:25;;;;;;;17.23;9.93;;;2.30;1.00;;;;;;5090485;28;20622;-73
2022/01/29 03:50:52;;;;;;;17.20;10.83;;;2.20;99.90;;;;;;5090884;28;20274;-73
2022/01/29 03:53:19;;;;;;;15.57;9.80;;;2.30;1.00;;;;;;5075372;28;20202;-74
2022/01/29 03:55:46;;;;;;;18.50;10.13;;;2.20;1.00;;;;;;5070497;28;20202;-74
2022/01/29 03:58:13;;;;;;;19.07;11.30;;;2.10;1.00;;;;;;5070229;28;20202;-74
2022/01/29 04:00:40;;;;;;;18.10;10.33;;;2.00;1.00;;;;;;5070893;28;20256;-75
2022/01/29 04:03:09;;;;;;;16.13;8.90;;;2.10;1.00;;;;;;5070456;28;20202;-73
2022/01/29 04:05:36;;;;;;;17.60;10.30;;;2.10;1.00;;;;;;5070548;28;20225;-72
2022/01/29 04:08:07;;;;;;;17.40;10.53;;;2.20;1.00;;;;;;5070303;28;20202;-72
2022/01/29 04:10:34;;;;;;;18.03;10.33;;;2.20;1.00;;;;;;5070326;28;20591;-73
2022/01/29 04:13:01;;;;;;;18.43;11.60;;;2.20;1.00;;;;;;5073927;28;20685;-74
2022/01/29 04:15:28;;;;;;;20.13;11.00;;;2.30;1.00;;;;;;5091921;28;20243;-74
2022/01/29 04:17:55;;;;;;;16.77;10.27;;;2.20;1.00;;;;;;5090712;28;20681;-73
2022/01/29 04:20:24;;;;;;;19.37;10.50;;;2.20;1.00;;;;;;5093717;28;20672;-73
2022/01/29 04:22:51;;;;;;;18.70;11.07;;;2.10;1.00;;;;;;5094336;28;21114;-73
2022/01/29 04:25:18;;;;;;;16.60;10.00;;;2.00;1.00;;;;;;5093736;28;20282;-73
2022/01/29 04:27:47;;;;;;;15.90;9.90;;;2.10;1.00;;;;;;5094417;28;20262;-73
2022/01/29 04:30:25;;;;;;;17.97;10.60;;;2.10;18.50;;;;;;5092476;28;20202;-75
2022/01/29 04:33:04;;;;;;;14.50;8.90;;;2.30;83.00;;;;;;5094423;28;20228;-73
2022/01/29 04:35:33;;;;;;;14.73;9.80;;;2.10;1.00;;;;;;5094086;28;20246;-71
2022/01/29 04:38:00;;;;;;;12.47;8.80;;;2.10;1.00;;;;;;5090735;28;20212;-74
2022/01/29 04:40:27;;;;;;;16.17;10.30;;;2.20;1.00;;;;;;5092076;28;20202;-73
2022/01/29 04:42:54;;;;;;;16.60;8.87;;;2.00;1.00;;;;;;5092698;28;20267;-73
2022/01/29 04:45:21;;;;;;;16.27;9.20;;;2.00;1.00;;;;;;5093538;28;20233;-74
2022/01/29 04:47:48;;;;;;;19.93;8.93;;;2.00;41.60;;;;;;5093695;28;20213;-73
2022/01/29 04:50:15;;;;;;;22.80;10.27;;;1.90;1.00;;;;;;5091980;28;20673;-73
2022/01/29 04:52:43;;;;;;;14.63;8.10;;;1.90;8.50;;;;;;5093832;28;20205;-73
2022/01/29 04:55:11;;;;;;;20.00;8.40;;;1.90;65.70;;;;;;5093453;28;20270;-73
2022/01/29 04:57:39;;;;;;;16.43;8.23;;;1.80;1.00;;;;;;5092905;28;20201;-72
2022/01/29 05:00:10;;;;;;;18.57;9.27;;;1.70;43.00;;;;;;5091834;28;20208;-73
2022/01/29 05:02:37;;;;;;;17.23;9.00;;;1.90;99.90;;;;;;5091747;28;20274;-73
2022/01/29 05:05:05;;;;;;;15.70;9.57;;;1.90;99.90;;;;;;5091927;28;20634;-72
2022/01/29 05:07:32;;;;;;;17.50;9.13;;;1.90;99.90;;;;;;5090744;28;20213;-73
2022/01/29 05:10:00;;;;;;;19.57;10.70;;;1.90;99.90;;;;;;5093862;28;20211;-72
2022/01/29 05:12:32;;;;;;;18.80;9.07;;;1.90;99.90;;;;;;5093369;28;20205;-72
2022/01/29 05:15:08;;;;;;;14.93;7.97;;;2.00;99.90;;;;;;5093817;28;20267;-72
2022/01/29 05:28:34;;;;;;;13.73;7.70;;;1.90;1.00;;;;;;5093315;28;20226;-72
2022/01/29 05:31:01;;;;;;;9.97;7.13;;;2.00;1.00;;;;;;5092877;28;20262;-74
2022/01/29 05:33:28;;;;;;;13.10;8.53;;;2.10;1.00;;;;;;5093055;28;20676;-75
2022/01/29 05:35:55;;;;;;;14.63;8.10;;;2.00;99.90;;;;;;5093137;28;20254;-75
2022/01/29 05:38:22;;;;;;;17.83;9.17;;;2.10;1.00;;;;;;5092496;28;20202;-74
2022/01/29 05:40:50;;;;;;;14.80;7.57;;;2.00;99.90;;;;;;5093234;28;20205;-74
2022/01/29 05:43:17;;;;;;;14.47;8.43;;;1.90;99.90;;;;;;5092569;28;20258;-73
2022/01/29 05:45:44;;;;;;;17.47;8.57;;;1.90;1.00;;;;;;5092889;28;20225;-72
2022/01/29 05:48:11;;;;;;;16.07;8.40;;;2.00;1.00;;;;;;5092323;28;20661;-72
2022/01/29 05:50:38;;;;;;;16.43;9.20;;;1.80;1.00;;;;;;5092324;28;20274;-73
2022/01/29 05:53:05;;;;;;;19.57;9.33;;;1.80;1.00;;;;;;5092250;28;20669;-74
2022/01/29 05:55:32;;;;;;;17.00;7.47;;;1.70;1.00;;;;;;5092046;28;20739;-73
2022/01/29 05:58:01;;;;;;;11.63;8.47;;;1.70;1.00;;;;;;5092938;28;20267;-73
2022/01/29 06:00:28;;;;;;;15.23;8.63;;;1.80;99.90;;;;;;5092257;28;20205;-73
2022/01/29 06:03:03;;;;;;;13.73;9.10;;;1.80;99.90;;;;;;5092546;28;20262;-74
2022/01/29 06:05:30;;;;;;;13.27;7.53;;;1.90;87.00;;;;;;5092363;28;20254;-74
2022/01/29 06:07:57;;;;;;;14.40;8.83;;;1.90;1.00;;;;;;5092572;28;20672;-73
2022/01/29 06:10:25;;;;;;;15.00;7.77;;;1.80;1.00;;;;;;5091905;28;20591;-74
2022/01/29 06:13:04;;;;;;;11.47;6.77;;;1.80;1.00;;;;;;5092386;28;20201;-74
2022/01/29 06:15:34;;;;;;;16.27;9.03;;;1.80;1.00;;;;;;5092122;28;20270;-73
2022/01/29 06:18:02;;;;;;;17.43;9.53;;;1.90;1.00;;;;;;5092558;28;20210;-72
2022/01/29 06:20:29;;;;;;;15.47;8.83;;;2.10;1.00;;;;;;5092280;28;20212;-73
2022/01/29 06:22:57;;;;;;;18.50;9.50;;;2.10;1.00;;;;;;5092365;28;20657;-72
2022/01/29 06:25:25;;;;;;;14.00;7.03;;;2.20;99.90;;;;;;5091351;28;20201;-74
2022/01/29 06:27:52;;;;;;;17.97;9.43;;;2.10;99.90;;;;;;5092039;28;20282;-78
2022/01/29 06:30:21;;;;;;;13.87;7.80;;;2.00;99.90;;;;;;5091544;28;20255;-76
2022/01/29 06:32:48;;;;;;;15.47;7.43;;;1.90;99.90;;;;;;5091785;28;20216;-75
2022/01/29 06:35:15;;;;;;;14.23;8.33;;;1.80;1.00;;;;;;5091500;28;20201;-74
2022/01/29 06:37:42;;;;;;;12.93;8.70;;;1.80;1.00;;;;;;5091843;28;20619;-78
2022/01/29 06:40:10;;;;;;;16.13;8.40;;;1.80;1.00;;;;;;5091838;28;20219;-77
2022/01/29 06:42:37;;;;;;;13.87;7.57;;;1.70;1.00;;;;;;5092347;28;20251;-77
2022/01/29 06:45:06;;;;;;;13.97;7.57;;;1.70;1.00;;;;;;5091600;28;20207;-78
2022/01/29 06:47:34;;;;;;;14.27;8.23;;;1.80;1.00;;;;;;5091340;28;20652;-77
2022/01/29 06:50:01;;;;;;;13.83;9.30;;;1.90;1.00;;;;;;5091337;28;20266;-74
2022/01/29 06:52:28;;;;;;;15.73;8.87;;;2.00;1.00;;;;;;5088375;28;20726;-75
2022/01/29 06:54:55;;;;;;;13.40;8.30;;;1.90;99.90;;;;;;5071398;28;20562;-75
2022/01/29 06:57:22;;;;;;;11.87;7.20;;;1.80;99.90;;;;;;5070722;28;20604;-79
2022/01/29 06:59:49;;;;;;;15.10;8.80;;;1.80;1.00;;;;;;5070092;28;20206;-79
2022/01/29 07:02:16;;;;;;;14.77;7.27;;;1.70;1.00;;;;;;5084538;28;20197;-78
2022/01/29 07:04:44;;;;;;;16.57;8.33;;;1.90;1.00;;;;;;5071002;28;20261;-79
2022/01/29 07:07:11;;;;;;;19.73;9.60;;;2.00;1.00;;;;;;5087970;28;20278;-75
2022/01/29 07:09:38;;;;;;;16.30;9.20;;;2.00;1.00;;;;;;5072081;28;20256;-78
2022/01/29 07:12:10;;;;;;;11.73;7.97;;;2.00;99.90;;;;;;5086956;28;20213;-80
2022/01/29 07:14:39;;;;;;;16.83;9.60;;;2.00;99.90;;;;;;5090218;28;20295;-79
2022/01/29 07:17:11;;;;;;;20.10;13.60;;;1.80;20.00;;;;;;5090893;28;20210;-79
2022/01/29 07:19:39;;;;;;;15.57;10.47;;;1.80;99.90;;;;;;5086597;28;20292;-80
2022/01/29 07:22:07;;;;;;;13.37;9.37;;;1.70;1.00;;;;;;5086952;28;20201;-75
2022/01/29 07:24:35;;;;;;;18.50;10.63;;;1.90;1.00;;;;;;5077359;28;20286;-74
2022/01/29 07:27:03;;;;;;;17.50;9.90;;;2.00;99.90;;;;;;5079666;28;20298;-74
2022/01/29 07:29:31;;;;;;;15.50;9.57;;;2.00;99.90;;;;;;5069552;28;20255;-77
2022/01/29 07:31:58;;;;;;;13.97;9.00;;;2.10;99.90;;;;;;5069776;28;20673;-72
2022/01/29 07:34:25;;;;;;;14.13;8.83;;;2.20;99.90;;;;;;5069248;28;20629;-71
2022/01/29 07:36:53;;;;;;;55.20;37.63;;;2.00;31.00;;;;;;5071000;28;20251;-74
2022/01/29 07:39:23;;;;;;;77.17;50.50;;;2.00;99.90;;;;;;5070143;28;20213;-78
2022/01/29 07:41:50;;;;;;;14.73;9.53;;;2.10;99.90;;;;;;5083251;28;20259;-75
2022/01/29 07:44:18;;;;;;;10.87;8.23;;;2.20;99.90;;;;;;5073216;28;20202;-73
2022/01/29 07:46:45;;;;;;;16.20;8.80;;;2.10;38.50;;;;;;5088664;28;20789;-75
2022/01/29 07:49:12;;;;;;;10.90;7.63;;;2.10;5.40;;;;;;5084608;28;20205;-75
2022/01/29 07:51:40;;;;;;;11.00;7.57;;;2.20;1.00;;;;;;5083987;28;20213;-79
2022/01/29 07:54:07;;;;;;;11.40;8.13;;;2.10;1.00;;;;;;5076075;28;20205;-75
2022/01/29 07:56:36;;;;;;;15.47;9.30;;;2.10;1.00;;;;;;5075242;28;20256;-77
2022/01/29 07:59:04;;;;;;;13.93;9.40;;;2.20;42.00;;;;;;5080549;28;20231;-75
2022/01/29 08:01:31;;;;;;;15.43;9.00;;;2.20;62.20;;;;;;5077619;28;20206;-76
2022/01/29 08:03:58;;;;;;;14.80;8.83;;;2.40;1.00;;;;;;5085423;28;20209;-77
2022/01/29 08:06:26;;;;;;;16.17;10.73;;;2.20;1.00;;;;;;5074885;28;20225;-74
2022/01/29 08:08:53;;;;;;;15.37;9.20;;;2.20;1.00;;;;;;5074900;28;20255;-74
2022/01/29 08:11:20;;;;;;;16.03;8.80;;;2.20;1.00;;;;;;5075332;28;20641;-73
2022/01/29 08:13:49;;;;;;;13.63;9.20;;;2.10;1.00;;;;;;5068934;28;20211;-74
2022/01/29 08:16:16;;;;;;;17.53;8.43;;;2.10;99.90;;;;;;5078591;28;20567;-74
2022/01/29 08:18:45;;;;;;;13.80;8.67;;;2.10;99.90;;;;;;5081505;28;20202;-74
2022/01/29 08:21:12;;;;;;;14.37;8.73;;;2.10;1.00;;;;;;5078280;28;20209;-77
2022/01/29 08:23:39;;;;;;;13.00;8.77;;;2.10;1.00;;;;;;5072144;28;20272;-75
2022/01/29 08:26:06;;;;;;;13.97;8.33;;;2.20;1.00;;;;;;5081582;28;20205;-77
2022/01/29 08:28:33;;;;;;;10.40;6.80;;;2.20;1.00;;;;;;5075527;28;20209;-77
2022/01/29 08:31:02;;;;;;;11.37;8.43;;;2.20;1.00;;;;;;5081510;28;20559;-83
2022/01/29 08:33:29;;;;;;;11.83;7.57;;;2.30;1.00;;;;;;5078698;28;20214;-79
2022/01/29 08:35:57;;;;;;;12.40;8.20;;;2.50;1.00;;;;;;5079063;28;20206;-78
2022/01/29 08:38:24;;;;;;;12.90;7.87;;;2.60;1.00;;;;;;5075107;28;20262;-75
2022/01/29 08:40:52;;;;;;;11.17;7.53;;;2.50;1.00;;;;;;5070119;28;20202;-77
2022/01/29 08:43:19;;;;;;;12.93;8.60;;;2.30;99.90;;;;;;5073894;28;20206;-76
2022/01/29 08:45:47;;;;;;;13.60;9.57;;;2.30;1.00;;;;;;5078755;28;20681;-76
2022/01/29 08:48:15;;;;;;;12.40;7.97;;;2.30;1.00;;;;;;5073004;28;20284;-76
2022/01/29 08:50:42;;;;;;;13.53;8.33;;;2.40;1.00;;;;;;5076466;28;20649;-77
2022/01/29 08:53:09;;;;;;;11.27;7.57;;;2.50;1.00;;;;;;5080641;28;20609;-76
2022/01/29 08:55:37;;;;;;;11.47;7.53;;;2.40;1.00;;;;;;5078779;28;20213;-75
2022/01/29 08:58:05;;;;;;;13.33;8.33;;;2.40;1.00;;;;;;5081039;28;20260;-76
2022/01/29 09:00:33;;;;;;;12.63;8.27;;;2.30;1.00;;;;;;5091033;28;20267;-75
2022/01/29 09:03:00;;;;;;;13.07;8.13;;;2.20;1.00;;;;;;5083738;28;20213;-75
2022/01/29 09:05:29;;;;;;;12.80;8.03;;;2.20;1.00;;;;;;5092937;28;20209;-76
2022/01/29 09:07:56;;;;;;;15.30;8.43;;;2.30;1.00;;;;;;5093430;28;20291;-78
2022/01/29 09:10:23;;;;;;;13.13;7.70;;;2.40;1.00;;;;;;5090401;28;20262;-75
2022/01/29 09:12:50;;;;;;;15.03;8.87;;;2.10;1.00;;;;;;5093684;28;20204;-77
2022/01/29 09:15:17;;;;;;;16.63;11.20;;;2.00;89.80;;;;;;5093107;28;20255;-77
2022/01/29 09:17:44;;;;;;;17.97;9.43;;;2.20;99.90;;;;;;5093751;28;20205;-76
2022/01/29 09:20:12;;;;;;;11.50;8.03;;;2.30;1.00;;;;;;5083457;28;20214;-76
2022/01/29 09:22:41;;;;;;;19.83;13.53;;;2.20;1.00;;;;;;5077429;28;20202;-79
2022/01/29 09:25:09;;;;;;;19.43;12.40;;;2.20;1.00;;;;;;5088899;28;20213;-77
2022/01/29 09:27:36;;;;;;;16.17;10.37;;;2.20;2.40;;;;;;5092527;28;20286;-78
2022/01/29 09:30:04;;;;;;;15.57;10.23;;;2.40;13.60;;;;;;5081230;28;20210;-78
2022/01/29 09:32:31;;;;;;;17.63;12.57;;;2.20;1.00;;;;;;5092495;28;20266;-78
2022/01/29 09:34:58;;;;;;;15.60;10.23;;;2.40;1.00;;;;;;5086052;28;20646;-78
2022/01/29 09:37:25;;;;;;;15.73;10.47;;;2.50;1.00;;;;;;5088103;28;20254;-78
2022/01/29 09:39:53;;;;;;;16.03;10.70;;;2.40;1.00;;;;;;5091081;28;20566;-78
2022/01/29 09:42:21;;;;;;;18.10;9.60;;;2.40;1.00;;;;;;5089830;28;20290;-78
2022/01/29 09:44:48;;;;;;;14.10;9.03;;;2.40;1.00;;;;;;5085055;28;20209;-77
2022/01/29 09:47:17;;;;;;;12.57;7.87;;;2.60;1.00;;;;;;5086077;28;20714;-77
2022/01/29 09:49:45;;;;;;;12.67;8.67;;;2.40;1.00;;;;;;5092602;28;20197;-77
2022/01/29 09:52:12;;;;;;;11.33;7.67;;;2.40;1.00;;;;;;5092320;28;20629;-77
2022/01/29 09:54:40;;;;;;;15.60;8.80;;;2.50;1.00;;;;;;5084415;28;20213;-78
2022/01/29 09:57:08;;;;;;;15.93;10.00;;;2.60;99.90;;;;;;5079842;28;20209;-79
2022/01/29 09:59:35;;;;;;;17.43;11.60;;;2.60;1.00;;;;;;5079940;28;20732;-79
2022/01/29 10:02:02;;;;;;;13.60;8.63;;;2.60;1.00;;;;;;5081430;28;20254;-78
2022/01/29 10:04:46;;;;;;;11.50;8.17;;;2.30;1.00;;;;;;5092484;28;20201;-78
2022/01/29 10:07:14;;;;;;;16.87;11.10;;;2.40;1.00;;;;;;5086557;28;20771;-77
2022/01/29 10:09:42;;;;;;;15.27;10.40;;;2.10;1.00;;;;;;5077351;28;20660;-78
2022/01/29 10:12:31;;;;;;;14.33;9.53;;;1.90;1.00;;;;;;5080979;28;20198;-78
2022/01/29 10:15:01;;;;;;;14.77;10.13;;;2.20;1.00;;;;;;5088416;28;20246;-78
2022/01/29 10:17:48;;;;;;;13.73;8.07;;;2.20;1.00;;;;;;5079043;28;20224;-78
2022/01/29 10:20:18;;;;;;;12.50;7.50;;;2.30;1.00;;;;;;5090837;28;20266;-78
2022/01/29 10:22:48;;;;;;;12.13;7.87;;;2.40;1.00;;;;;;5083280;28;20233;-78
2022/01/29 10:25:17;;;;;;;12.47;7.90;;;2.60;99.90;;;;;;5085869;28;20268;-78
2022/01/29 10:28:08;;;;;;;13.53;8.03;;;2.70;99.90;;;;;;5091835;28;20233;-77
2022/01/29 10:30:37;;;;;;;12.13;8.00;;;2.80;99.90;;;;;;5089434;28;20213;-78
2022/01/29 10:33:18;;;;;;;10.33;7.37;;;2.80;99.90;;;;;;5087398;28;20300;-78
2022/01/29 10:35:46;;;;;;;12.97;7.63;;;2.70;99.90;;;;;;5072115;28;20240;-78
2022/01/29 10:38:13;;;;;;;9.90;7.70;;;2.70;99.90;;;;;;5071377;28;20259;-78
2022/01/29 10:40:40;;;;;;;12.90;9.60;;;2.50;99.90;;;;;;5071692;28;20206;-78
2022/01/29 10:43:10;;;;;;;11.03;8.20;;;2.70;99.90;;;;;;5080655;28;20234;-78
2022/01/29 10:45:39;;;;;;;9.93;7.57;;;2.90;99.90;;;;;;5088947;28;20198;-79
2022/01/29 10:48:06;;;;;;;10.40;7.07;;;2.90;99.90;;;;;;5080516;28;20786;-81
2022/01/29 10:50:34;;;;;;;10.20;6.10;;;3.00;99.90;;;;;;5088667;28;20202;-81
2022/01/29 10:53:25;;;;;;;10.00;6.57;;;3.00;99.90;;;;;;5088301;28;20296;-81
2022/01/29 10:55:59;;;;;;;8.97;7.07;;;2.80;99.90;;;;;;5089102;28;20266;-80
2022/01/29 10:58:28;;;;;;;11.87;7.50;;;2.80;99.90;;;;;;5090452;28;20624;-83
2022/01/29 11:01:14;;;;;;;10.43;6.80;;;2.60;99.90;;;;;;5094155;28;20218;-80
2022/01/29 11:03:42;;;;;;;11.20;7.20;;;2.80;99.90;;;;;;5083762;28;20700;-82
2022/01/29 11:06:11;;;;;;;10.57;7.07;;;3.10;99.90;;;;;;5090377;28;20239;-81
2022/01/29 11:08:40;;;;;;;10.37;7.10;;;3.10;99.90;;;;;;5071079;28;20238;-78
2022/01/29 11:11:07;;;;;;;8.50;6.53;;;3.00;99.90;;;;;;5069913;28;20207;-80
2022/01/29 11:13:37;;;;;;;12.10;7.33;;;2.80;99.90;;;;;;5071629;28;20285;-80
2022/01/29 11:16:05;;;;;;;11.27;7.03;;;3.00;99.90;;;;;;5071209;28;20284;-79
2022/01/29 11:18:33;;;;;;;11.33;7.87;;;3.20;99.90;;;;;;5071692;28;20942;-81
2022/01/29 11:21:01;;;;;;;9.40;7.47;;;3.30;99.90;;;;;;5071939;28;20593;-80
2022/01/29 11:23:29;;;;;;;11.30;7.50;;;3.30;99.90;;;;;;5070814;28;20206;-81
2022/01/29 11:25:59;;;;;;;48.93;30.00;;;3.40;64.70;;;;;;5071233;28;20194;-81
2022/01/29 11:28:28;;;;;;;15.37;11.33;;;3.40;23.60;;;;;;5070868;28;20221;-81
2022/01/29 11:31:28;;;;;;;13.00;10.20;;;3.50;77.40;;;;;;5071724;28;20213;-81
2022/01/29 11:34:20;;;;;;;11.07;8.27;;;3.50;60.10;;;;;;5071459;28;20294;-82
2022/01/29 11:37:06;;;;;;;9.73;7.30;;;3.10;98.50;;;;;;5072453;28;20202;-83
2022/01/29 11:39:37;;;;;;;11.57;8.60;;;3.40;99.90;;;;;;5078444;28;20210;-85
2022/01/29 11:42:30;;;;;;;13.67;9.07;;;3.10;54.20;;;;;;5079036;28;20197;-84
2022/01/29 11:44:58;;;;;;;17.17;10.83;;;3.30;99.90;;;;;;5076714;28;20252;-82
2022/01/29 11:47:49;;;;;;;13.17;9.30;;;3.10;99.90;;;;;;5086544;28;20205;-87
2022/01/29 11:50:45;;;;;;;12.50;8.03;;;2.40;99.90;;;;;;5088768;28;20213;-85
2022/01/29 11:53:13;;;;;;;11.60;7.63;;;2.60;1.00;;;;;;5078574;28;20212;-84
2022/01/29 11:55:43;;;;;;;12.17;10.03;;;3.20;99.90;;;;;;5092217;28;20205;-82
2022/01/29 11:58:27;;;;;;;12.07;8.97;;;3.00;99.90;;;;;;5084293;28;20241;-83
2022/01/29 12:00:55;;;;;;;14.03;9.20;;;3.30;99.90;;;;;;5080196;28;20216;-81
2022/01/29 12:04:05;;;;;;;11.60;8.07;;;3.10;99.90;;;;;;5086342;28;20205;-83
2022/01/29 12:06:38;;;;;;;15.90;12.57;;;3.00;99.90;;;;;;5074147;28;20678;-78
2022/01/29 12:09:24;;;;;;;13.60;8.07;;;3.10;99.90;;;;;;5071845;28;20229;-83
2022/01/29 12:12:19;;;;;;;10.30;7.47;;;2.70;99.90;;;;;;5085486;28;20673;-83
2022/01/29 12:14:47;;;;;;;11.07;8.53;;;3.30;99.90;;;;;;5087757;28;20205;-85
2022/01/29 12:17:34;;;;;;;16.93;11.07;;;3.20;99.90;;;;;;5091744;28;20202;-84
2022/01/29 12:20:04;;;;;;;118.83;70.50;;;3.40;75.70;;;;;;5092233;28;20278;-86
2022/01/29 12:22:36;;;;;;;13.77;10.97;;;3.40;85.50;;;;;;5089140;28;20558;-82
2022/01/29 12:25:06;;;;;;;11.47;9.03;;;3.40;61.30;;;;;;5084501;28;20221;-79
2022/01/29 12:27:43;;;;;;;12.67;9.23;;;3.50;50.70;;;;;;5071335;28;20216;-81
2022/01/29 12:30:12;;;;;;;15.10;11.10;;;3.50;39.60;;;;;;5070387;28;20202;-82
2022/01/29 12:32:39;;;;;;;17.50;10.67;;;3.40;1.00;;;;;;5090592;28;20201;-80
2022/01/29 12:35:08;;;;;;;14.67;10.13;;;3.20;1.00;;;;;;5093102;28;20202;-82
2022/01/29 12:37:36;;;;;;;15.77;10.97;;;3.40;1.00;;;;;;5084580;28;20239;-81
2022/01/29 12:40:18;;;;;;;17.50;11.43;;;3.20;36.10;;;;;;5089567;28;20255;-79
2022/01/29 12:42:54;;;;;;;16.30;10.07;;;3.30;1.00;;;;;;5075768;28;20566;-82
2022/01/29 12:45:23;;;;;;;12.03;9.30;;;3.00;41.60;;;;;;5081629;28;20239;-83
2022/01/29 12:47:50;;;;;;;14.93;10.37;;;2.90;90.80;;;;;;5094715;28;20225;-81
2022/01/29 12:50:21;;;;;;;11.47;8.73;;;3.30;1.00;;;;;;5094461;28;20201;-82
2022/01/29 12:53:04;;;;;;;11.53;9.37;;;3.40;48.40;;;;;;5082536;28;20589;-81
2022/01/29 12:55:31;;;;;;;11.23;7.87;;;3.70;1.00;;;;;;5074545;28;20747;-81
2022/01/29 12:57:58;;;;;;;14.63;11.70;;;3.80;1.00;;;;;;5073890;28;20206;-82
2022/01/29 13:00:25;;;;;;;10.63;7.87;;;4.00;1.00;;;;;;5073410;28;20210;-80
2022/01/29 13:02:52;;;;;;;11.17;9.13;;;3.90;1.00;;;;;;5074465;28;20255;-82
2022/01/29 13:05:20;;;;;;;12.97;8.87;;;3.70;1.00;;;;;;5081002;28;20266;-83
2022/01/29 13:07:49;;;;;;;10.10;7.60;;;3.90;1.00;;;;;;5081666;28;20296;-77
2022/01/29 13:10:16;;;;;;;16.20;10.73;;;4.00;1.00;;;;;;5072526;28;20281;-79